Disclaimer

Please do not use the information listed here in-flight or in-navigation, as they are not provided to us by the airports but are provided by volunteers, so they might be outdated.

Search


Regions


Airport information page

Radio informations:
Tower (TWR) - 120.0 MHz

Airport informations:
Latitude: 41° 36' 37.00" N
Longitude: 041° 35' 58.90" E
Elevation: 105 feet - 32 meters
Operating hours: Remarks
Operating agency: Civil government, landing fees and diplomatic clearance may be required
Timezone: UTC+3(+4DT) - Last Sunday in March to last Sunday in October
Fuel: N/A

Runway information:
13/31 - 7325 x 150 feet< - >2233 x 46 meters

Recent METARs:
UGSB 122200Z 13010KT 9999 FEW035 SCT080 11/09 Q1025 NOSIG
UGSB 122230Z 13012KT 9999 SCT030CB BKN055 12/10 Q1025 NOSIG
UGSB 122300Z 13011KT 9999 SCT030CB BKN060 12/10 Q1025 NOSIG

Airport on the map: